sensor_id;sensor_type;location;lat;lon;timestamp;P1;durP1;ratioP1;P2;durP2;ratioP2
12962;SDS011;6546;49.882;8.666;2022-11-20T00:02:20;28.23;;;19.80;;
12962;SDS011;6546;49.882;8.666;2022-11-20T00:04:48;27.77;;;19.10;;
12962;SDS011;6546;49.882;8.666;2022-11-20T00:07:15;27.17;;;19.27;;
12962;SDS011;6546;49.882;8.666;2022-11-20T00:09:42;27.50;;;19.47;;
12962;SDS011;6546;49.882;8.666;2022-11-20T00:12:10;27.90;;;19.60;;
12962;SDS011;6546;49.882;8.666;2022-11-20T00:14:37;26.60;;;20.07;;
12962;SDS011;6546;49.882;8.666;2022-11-20T00:17:06;26.40;;;19.17;;
12962;SDS011;6546;49.882;8.666;2022-11-20T00:19:34;29.13;;;20.47;;
12962;SDS011;6546;49.882;8.666;2022-11-20T00:22:01;30.07;;;20.53;;
12962;SDS011;6546;49.882;8.666;2022-11-20T00:24:28;29.87;;;19.87;;
12962;SDS011;6546;49.882;8.666;2022-11-20T00:26:56;25.87;;;19.00;;
12962;SDS011;6546;49.882;8.666;2022-11-20T00:29:24;29.00;;;20.27;;
12962;SDS011;6546;49.882;8.666;2022-11-20T00:32:00;27.87;;;18.77;;
12962;SDS011;6546;49.882;8.666;2022-11-20T00:34:28;29.20;;;20.53;;
12962;SDS011;6546;49.882;8.666;2022-11-20T00:36:57;29.23;;;20.73;;
12962;SDS011;6546;49.882;8.666;2022-11-20T00:39:24;28.30;;;18.53;;
12962;SDS011;6546;49.882;8.666;2022-11-20T00:41:51;29.17;;;20.33;;
12962;SDS011;6546;49.882;8.666;2022-11-20T00:44:19;31.93;;;21.33;;
12962;SDS011;6546;49.882;8.666;2022-11-20T00:46:45;27.63;;;19.77;;
12962;SDS011;6546;49.882;8.666;2022-11-20T00:49:12;28.53;;;20.77;;
12962;SDS011;6546;49.882;8.666;2022-11-20T00:51:40;26.20;;;19.30;;
12962;SDS011;6546;49.882;8.666;2022-11-20T00:54:10;28.67;;;20.67;;
12962;SDS011;6546;49.882;8.666;2022-11-20T00:56:37;28.03;;;19.00;;
12962;SDS011;6546;49.882;8.666;2022-11-20T00:59:05;28.50;;;20.10;;
12962;SDS011;6546;49.882;8.666;2022-11-20T01:01:32;29.87;;;19.43;;
12962;SDS011;6546;49.882;8.666;2022-11-20T01:03:59;28.50;;;19.07;;
12962;SDS011;6546;49.882;8.666;2022-11-20T01:06:27;28.37;;;19.23;;
12962;SDS011;6546;49.882;8.666;2022-11-20T01:08:58;28.63;;;19.53;;
12962;SDS011;6546;49.882;8.666;2022-11-20T01:14:54;27.10;;;19.47;;
12962;SDS011;6546;49.882;8.666;2022-11-20T01:17:23;28.23;;;19.13;;
12962;SDS011;6546;49.882;8.666;2022-11-20T01:19:49;26.97;;;18.83;;
12962;SDS011;6546;49.882;8.666;2022-11-20T01:22:17;29.30;;;19.73;;
12962;SDS011;6546;49.882;8.666;2022-11-20T01:24:44;27.50;;;19.13;;
12962;SDS011;6546;49.882;8.666;2022-11-20T01:27:13;27.17;;;18.77;;
12962;SDS011;6546;49.882;8.666;2022-11-20T01:29:39;29.17;;;19.43;;
12962;SDS011;6546;49.882;8.666;2022-11-20T01:32:08;27.43;;;19.57;;
12962;SDS011;6546;49.882;8.666;2022-11-20T01:34:35;31.27;;;20.80;;
12962;SDS011;6546;49.882;8.666;2022-11-20T01:37:02;28.33;;;19.47;;
12962;SDS011;6546;49.882;8.666;2022-11-20T01:39:29;28.43;;;20.20;;
12962;SDS011;6546;49.882;8.666;2022-11-20T01:41:56;28.13;;;19.47;;
12962;SDS011;6546;49.882;8.666;2022-11-20T01:44:45;29.43;;;20.13;;
12962;SDS011;6546;49.882;8.666;2022-11-20T01:47:24;27.37;;;19.30;;
12962;SDS011;6546;49.882;8.666;2022-11-20T01:49:56;25.43;;;17.37;;
12962;SDS011;6546;49.882;8.666;2022-11-20T01:52:30;25.53;;;18.13;;
12962;SDS011;6546;49.882;8.666;2022-11-20T01:55:05;26.43;;;19.30;;
12962;SDS011;6546;49.882;8.666;2022-11-20T01:57:39;24.17;;;16.70;;
12962;SDS011;6546;49.882;8.666;2022-11-20T02:00:08;24.63;;;17.13;;
12962;SDS011;6546;49.882;8.666;2022-11-20T02:02:39;25.93;;;17.37;;
12962;SDS011;6546;49.882;8.666;2022-11-20T02:05:12;24.83;;;18.13;;
12962;SDS011;6546;49.882;8.666;2022-11-20T02:07:45;23.20;;;16.70;;
12962;SDS011;6546;49.882;8.666;2022-11-20T02:10:14;25.83;;;16.17;;
12962;SDS011;6546;49.882;8.666;2022-11-20T02:12:42;25.00;;;17.67;;
12962;SDS011;6546;49.882;8.666;2022-11-20T02:15:27;24.53;;;16.80;;
12962;SDS011;6546;49.882;8.666;2022-11-20T02:17:56;24.23;;;17.00;;
12962;SDS011;6546;49.882;8.666;2022-11-20T02:20:23;25.20;;;17.20;;
12962;SDS011;6546;49.882;8.666;2022-11-20T02:22:54;26.60;;;18.83;;
12962;SDS011;6546;49.882;8.666;2022-11-20T02:25:28;27.57;;;19.57;;
12962;SDS011;6546;49.882;8.666;2022-11-20T02:27:57;28.30;;;19.07;;
12962;SDS011;6546;49.882;8.666;2022-11-20T02:30:24;29.17;;;19.63;;
12962;SDS011;6546;49.882;8.666;2022-11-20T02:32:51;27.73;;;19.57;;
12962;SDS011;6546;49.882;8.666;2022-11-20T02:38:09;28.50;;;19.83;;
12962;SDS011;6546;49.882;8.666;2022-11-20T02:40:37;30.50;;;20.20;;
12962;SDS011;6546;49.882;8.666;2022-11-20T02:43:04;30.17;;;20.50;;
12962;SDS011;6546;49.882;8.666;2022-11-20T02:45:31;29.43;;;19.50;;
12962;SDS011;6546;49.882;8.666;2022-11-20T02:48:00;27.80;;;18.80;;
12962;SDS011;6546;49.882;8.666;2022-11-20T02:50:28;27.53;;;18.83;;
12962;SDS011;6546;49.882;8.666;2022-11-20T02:52:54;26.40;;;17.33;;
12962;SDS011;6546;49.882;8.666;2022-11-20T02:55:22;27.60;;;17.93;;
12962;SDS011;6546;49.882;8.666;2022-11-20T02:57:52;29.57;;;19.60;;
12962;SDS011;6546;49.882;8.666;2022-11-20T03:00:20;26.00;;;19.20;;
12962;SDS011;6546;49.882;8.666;2022-11-20T03:02:48;27.27;;;18.00;;
12962;SDS011;6546;49.882;8.666;2022-11-20T03:05:15;28.87;;;18.53;;
12962;SDS011;6546;49.882;8.666;2022-11-20T03:07:42;27.20;;;18.13;;
12962;SDS011;6546;49.882;8.666;2022-11-20T03:10:10;28.83;;;19.40;;
12962;SDS011;6546;49.882;8.666;2022-11-20T03:12:37;27.13;;;19.27;;
12962;SDS011;6546;49.882;8.666;2022-11-20T03:15:06;27.47;;;18.70;;
12962;SDS011;6546;49.882;8.666;2022-11-20T03:17:35;26.83;;;18.63;;
12962;SDS011;6546;49.882;8.666;2022-11-20T03:20:02;25.40;;;17.30;;
12962;SDS011;6546;49.882;8.666;2022-11-20T03:22:31;25.30;;;17.37;;
12962;SDS011;6546;49.882;8.666;2022-11-20T03:24:58;26.23;;;17.50;;
12962;SDS011;6546;49.882;8.666;2022-11-20T03:27:25;26.57;;;16.97;;
12962;SDS011;6546;49.882;8.666;2022-11-20T03:29:52;26.47;;;16.43;;
12962;SDS011;6546;49.882;8.666;2022-11-20T03:32:20;25.17;;;17.30;;
12962;SDS011;6546;49.882;8.666;2022-11-20T03:34:47;26.23;;;17.40;;
12962;SDS011;6546;49.882;8.666;2022-11-20T03:37:15;26.23;;;17.47;;
12962;SDS011;6546;49.882;8.666;2022-11-20T03:39:43;23.60;;;16.17;;
12962;SDS011;6546;49.882;8.666;2022-11-20T03:42:10;24.87;;;16.53;;
12962;SDS011;6546;49.882;8.666;2022-11-20T03:44:57;26.13;;;17.40;;
12962;SDS011;6546;49.882;8.666;2022-11-20T03:47:25;26.30;;;17.63;;
12962;SDS011;6546;49.882;8.666;2022-11-20T03:49:53;24.87;;;17.23;;
12962;SDS011;6546;49.882;8.666;2022-11-20T03:52:20;27.67;;;17.60;;
12962;SDS011;6546;49.882;8.666;2022-11-20T03:54:47;26.90;;;17.83;;
12962;SDS011;6546;49.882;8.666;2022-11-20T03:57:14;26.17;;;17.47;;
12962;SDS011;6546;49.882;8.666;2022-11-20T03:59:42;26.60;;;17.23;;
12962;SDS011;6546;49.882;8.666;2022-11-20T04:02:09;28.23;;;17.70;;
12962;SDS011;6546;49.882;8.666;2022-11-20T04:04:39;29.73;;;17.90;;
12962;SDS011;6546;49.882;8.666;2022-11-20T04:07:06;25.27;;;16.90;;
12962;SDS011;6546;49.882;8.666;2022-11-20T04:09:33;26.07;;;16.80;;
12962;SDS011;6546;49.882;8.666;2022-11-20T04:12:00;24.67;;;16.80;;
12962;SDS011;6546;49.882;8.666;2022-11-20T04:14:27;23.73;;;15.23;;
12962;SDS011;6546;49.882;8.666;2022-11-20T04:16:54;26.53;;;17.70;;
12962;SDS011;6546;49.882;8.666;2022-11-20T04:19:21;25.27;;;16.77;;
12962;SDS011;6546;49.882;8.666;2022-11-20T04:21:51;25.73;;;16.63;;
12962;SDS011;6546;49.882;8.666;2022-11-20T04:24:19;25.13;;;15.50;;
12962;SDS011;6546;49.882;8.666;2022-11-20T04:26:46;24.27;;;15.77;;
12962;SDS011;6546;49.882;8.666;2022-11-20T04:29:13;25.20;;;16.07;;
12962;SDS011;6546;49.882;8.666;2022-11-20T04:31:41;24.60;;;15.93;;
12962;SDS011;6546;49.882;8.666;2022-11-20T04:34:10;25.07;;;15.90;;
12962;SDS011;6546;49.882;8.666;2022-11-20T04:36:37;25.30;;;16.43;;
12962;SDS011;6546;49.882;8.666;2022-11-20T04:39:06;23.97;;;16.10;;
12962;SDS011;6546;49.882;8.666;2022-11-20T04:41:34;26.53;;;16.40;;
12962;SDS011;6546;49.882;8.666;2022-11-20T04:44:03;28.07;;;16.43;;
12962;SDS011;6546;49.882;8.666;2022-11-20T04:46:31;26.90;;;15.83;;
12962;SDS011;6546;49.882;8.666;2022-11-20T04:48:59;23.83;;;15.87;;
12962;SDS011;6546;49.882;8.666;2022-11-20T04:51:28;28.50;;;17.50;;
12962;SDS011;6546;49.882;8.666;2022-11-20T04:53:56;25.53;;;16.20;;
12962;SDS011;6546;49.882;8.666;2022-11-20T04:56:25;25.23;;;16.17;;
12962;SDS011;6546;49.882;8.666;2022-11-20T04:58:53;25.80;;;16.50;;
12962;SDS011;6546;49.882;8.666;2022-11-20T05:01:21;27.90;;;17.67;;
12962;SDS011;6546;49.882;8.666;2022-11-20T05:03:49;28.40;;;17.50;;
12962;SDS011;6546;49.882;8.666;2022-11-20T05:06:17;27.87;;;17.07;;
12962;SDS011;6546;49.882;8.666;2022-11-20T05:08:46;28.53;;;17.30;;
12962;SDS011;6546;49.882;8.666;2022-11-20T05:11:13;28.47;;;17.40;;
12962;SDS011;6546;49.882;8.666;2022-11-20T05:13:43;29.53;;;17.13;;
12962;SDS011;6546;49.882;8.666;2022-11-20T05:16:12;28.63;;;17.17;;
12962;SDS011;6546;49.882;8.666;2022-11-20T05:18:41;29.27;;;17.53;;
12962;SDS011;6546;49.882;8.666;2022-11-20T05:21:09;31.87;;;17.73;;
12962;SDS011;6546;49.882;8.666;2022-11-20T05:23:37;29.77;;;17.80;;
12962;SDS011;6546;49.882;8.666;2022-11-20T05:26:05;30.53;;;17.70;;
12962;SDS011;6546;49.882;8.666;2022-11-20T05:28:35;31.43;;;18.60;;
12962;SDS011;6546;49.882;8.666;2022-11-20T05:31:09;29.23;;;17.50;;
12962;SDS011;6546;49.882;8.666;2022-11-20T05:33:39;31.27;;;17.57;;
12962;SDS011;6546;49.882;8.666;2022-11-20T05:36:07;30.47;;;18.50;;
12962;SDS011;6546;49.882;8.666;2022-11-20T05:38:35;31.17;;;18.47;;
12962;SDS011;6546;49.882;8.666;2022-11-20T05:41:03;32.53;;;19.03;;
12962;SDS011;6546;49.882;8.666;2022-11-20T05:43:32;29.67;;;17.80;;
12962;SDS011;6546;49.882;8.666;2022-11-20T05:46:02;31.77;;;19.07;;
12962;SDS011;6546;49.882;8.666;2022-11-20T05:48:31;31.00;;;19.03;;
12962;SDS011;6546;49.882;8.666;2022-11-20T05:50:59;31.43;;;19.23;;
12962;SDS011;6546;49.882;8.666;2022-11-20T05:53:28;32.63;;;18.83;;
12962;SDS011;6546;49.882;8.666;2022-11-20T05:55:57;32.20;;;19.67;;
12962;SDS011;6546;49.882;8.666;2022-11-20T05:58:25;31.40;;;18.50;;
12962;SDS011;6546;49.882;8.666;2022-11-20T06:00:51;30.80;;;18.53;;
12962;SDS011;6546;49.882;8.666;2022-11-20T06:03:20;27.10;;;17.90;;
12962;SDS011;6546;49.882;8.666;2022-11-20T06:05:49;30.47;;;18.80;;
12962;SDS011;6546;49.882;8.666;2022-11-20T06:08:16;33.27;;;19.60;;
12962;SDS011;6546;49.882;8.666;2022-11-20T06:10:43;32.90;;;20.47;;
12962;SDS011;6546;49.882;8.666;2022-11-20T06:13:11;33.80;;;21.20;;
12962;SDS011;6546;49.882;8.666;2022-11-20T06:15:39;29.17;;;19.70;;
12962;SDS011;6546;49.882;8.666;2022-11-20T06:18:06;33.40;;;20.40;;
12962;SDS011;6546;49.882;8.666;2022-11-20T06:20:36;33.27;;;19.50;;
12962;SDS011;6546;49.882;8.666;2022-11-20T06:23:07;30.53;;;18.87;;
12962;SDS011;6546;49.882;8.666;2022-11-20T06:25:36;32.77;;;20.73;;
12962;SDS011;6546;49.882;8.666;2022-11-20T06:28:04;34.90;;;21.27;;
12962;SDS011;6546;49.882;8.666;2022-11-20T06:30:31;31.93;;;20.03;;
12962;SDS011;6546;49.882;8.666;2022-11-20T06:32:58;31.90;;;19.90;;
12962;SDS011;6546;49.882;8.666;2022-11-20T06:35:26;31.37;;;19.03;;
12962;SDS011;6546;49.882;8.666;2022-11-20T06:37:54;32.97;;;20.03;;
12962;SDS011;6546;49.882;8.666;2022-11-20T06:40:24;32.03;;;19.47;;
12962;SDS011;6546;49.882;8.666;2022-11-20T06:42:58;32.87;;;20.40;;
12962;SDS011;6546;49.882;8.666;2022-11-20T06:45:26;31.47;;;19.50;;
12962;SDS011;6546;49.882;8.666;2022-11-20T06:47:53;30.63;;;19.47;;
12962;SDS011;6546;49.882;8.666;2022-11-20T06:50:20;33.10;;;20.37;;
12962;SDS011;6546;49.882;8.666;2022-11-20T06:52:47;30.93;;;19.33;;
12962;SDS011;6546;49.882;8.666;2022-11-20T06:55:15;30.50;;;19.20;;
12962;SDS011;6546;49.882;8.666;2022-11-20T06:57:47;30.20;;;19.63;;
12962;SDS011;6546;49.882;8.666;2022-11-20T07:00:18;29.73;;;19.00;;
12962;SDS011;6546;49.882;8.666;2022-11-20T07:02:46;28.37;;;18.77;;
12962;SDS011;6546;49.882;8.666;2022-11-20T07:05:18;28.93;;;19.30;;
12962;SDS011;6546;49.882;8.666;2022-11-20T07:07:45;26.20;;;17.70;;
12962;SDS011;6546;49.882;8.666;2022-11-20T07:10:14;27.47;;;17.87;;
12962;SDS011;6546;49.882;8.666;2022-11-20T07:12:54;30.20;;;18.50;;
12962;SDS011;6546;49.882;8.666;2022-11-20T07:15:22;31.40;;;18.77;;
12962;SDS011;6546;49.882;8.666;2022-11-20T07:17:53;28.97;;;18.37;;
12962;SDS011;6546;49.882;8.666;2022-11-20T07:20:21;30.80;;;19.50;;
12962;SDS011;6546;49.882;8.666;2022-11-20T07:22:52;35.50;;;20.50;;
12962;SDS011;6546;49.882;8.666;2022-11-20T07:25:20;33.07;;;20.73;;
12962;SDS011;6546;49.882;8.666;2022-11-20T07:27:50;31.57;;;19.63;;
12962;SDS011;6546;49.882;8.666;2022-11-20T07:30:18;34.63;;;19.70;;
12962;SDS011;6546;49.882;8.666;2022-11-20T07:32:46;33.83;;;19.90;;
12962;SDS011;6546;49.882;8.666;2022-11-20T07:35:15;33.77;;;19.90;;
12962;SDS011;6546;49.882;8.666;2022-11-20T07:37:42;36.27;;;20.23;;
12962;SDS011;6546;49.882;8.666;2022-11-20T07:42:39;34.07;;;20.23;;
12962;SDS011;6546;49.882;8.666;2022-11-20T07:45:17;37.77;;;21.60;;
12962;SDS011;6546;49.882;8.666;2022-11-20T07:47:46;32.67;;;20.87;;
12962;SDS011;6546;49.882;8.666;2022-11-20T07:50:13;34.60;;;20.57;;
12962;SDS011;6546;49.882;8.666;2022-11-20T07:52:41;33.70;;;20.37;;
12962;SDS011;6546;49.882;8.666;2022-11-20T07:55:08;33.87;;;20.27;;
12962;SDS011;6546;49.882;8.666;2022-11-20T07:57:36;33.00;;;18.97;;
12962;SDS011;6546;49.882;8.666;2022-11-20T08:00:04;33.43;;;19.50;;
12962;SDS011;6546;49.882;8.666;2022-11-20T08:02:36;31.10;;;18.63;;
12962;SDS011;6546;49.882;8.666;2022-11-20T08:05:04;32.43;;;18.87;;
12962;SDS011;6546;49.882;8.666;2022-11-20T08:07:34;33.00;;;20.27;;
12962;SDS011;6546;49.882;8.666;2022-11-20T08:10:09;35.50;;;20.50;;
12962;SDS011;6546;49.882;8.666;2022-11-20T08:12:43;35.73;;;20.13;;
12962;SDS011;6546;49.882;8.666;2022-11-20T08:15:28;36.93;;;20.23;;
12962;SDS011;6546;49.882;8.666;2022-11-20T08:18:02;37.43;;;21.40;;
12962;SDS011;6546;49.882;8.666;2022-11-20T08:20:31;36.90;;;19.70;;
12962;SDS011;6546;49.882;8.666;2022-11-20T08:22:59;41.33;;;20.77;;
12962;SDS011;6546;49.882;8.666;2022-11-20T08:25:27;39.03;;;21.23;;
12962;SDS011;6546;49.882;8.666;2022-11-20T08:27:56;34.80;;;20.67;;
12962;SDS011;6546;49.882;8.666;2022-11-20T08:30:24;34.73;;;20.53;;
12962;SDS011;6546;49.882;8.666;2022-11-20T08:32:52;33.77;;;19.53;;
12962;SDS011;6546;49.882;8.666;2022-11-20T08:35:20;32.73;;;18.50;;
12962;SDS011;6546;49.882;8.666;2022-11-20T08:37:47;29.33;;;18.43;;
12962;SDS011;6546;49.882;8.666;2022-11-20T08:40:15;26.63;;;17.37;;
12962;SDS011;6546;49.882;8.666;2022-11-20T08:42:46;32.17;;;17.40;;
12962;SDS011;6546;49.882;8.666;2022-11-20T08:45:18;26.70;;;17.53;;
12962;SDS011;6546;49.882;8.666;2022-11-20T08:47:47;27.57;;;16.90;;
12962;SDS011;6546;49.882;8.666;2022-11-20T08:50:15;29.90;;;17.43;;
12962;SDS011;6546;49.882;8.666;2022-11-20T08:52:48;24.93;;;16.20;;
12962;SDS011;6546;49.882;8.666;2022-11-20T08:55:16;25.53;;;16.10;;
12962;SDS011;6546;49.882;8.666;2022-11-20T08:57:44;25.97;;;17.23;;
12962;SDS011;6546;49.882;8.666;2022-11-20T09:00:12;29.90;;;18.50;;
12962;SDS011;6546;49.882;8.666;2022-11-20T09:02:40;23.73;;;16.17;;
12962;SDS011;6546;49.882;8.666;2022-11-20T09:05:07;26.50;;;17.17;;
12962;SDS011;6546;49.882;8.666;2022-11-20T09:07:37;26.23;;;16.23;;
12962;SDS011;6546;49.882;8.666;2022-11-20T09:10:15;26.00;;;17.40;;
12962;SDS011;6546;49.882;8.666;2022-11-20T09:12:42;25.27;;;15.80;;
12962;SDS011;6546;49.882;8.666;2022-11-20T09:15:10;25.93;;;17.10;;
12962;SDS011;6546;49.882;8.666;2022-11-20T09:17:37;29.03;;;20.00;;
12962;SDS011;6546;49.882;8.666;2022-11-20T09:20:19;24.87;;;16.27;;
12962;SDS011;6546;49.882;8.666;2022-11-20T09:22:51;24.23;;;16.17;;
12962;SDS011;6546;49.882;8.666;2022-11-20T09:25:20;22.47;;;15.40;;
12962;SDS011;6546;49.882;8.666;2022-11-20T09:27:54;21.83;;;15.77;;
12962;SDS011;6546;49.882;8.666;2022-11-20T09:30:21;23.13;;;16.97;;
12962;SDS011;6546;49.882;8.666;2022-11-20T09:32:48;23.87;;;16.07;;
12962;SDS011;6546;49.882;8.666;2022-11-20T09:35:16;26.40;;;16.87;;
12962;SDS011;6546;49.882;8.666;2022-11-20T09:37:44;20.23;;;14.37;;
12962;SDS011;6546;49.882;8.666;2022-11-20T09:40:17;22.30;;;14.50;;
12962;SDS011;6546;49.882;8.666;2022-11-20T09:42:50;21.20;;;15.30;;
12962;SDS011;6546;49.882;8.666;2022-11-20T09:45:25;22.30;;;14.87;;
12962;SDS011;6546;49.882;8.666;2022-11-20T09:48:06;23.73;;;16.10;;
12962;SDS011;6546;49.882;8.666;2022-11-20T09:50:43;20.93;;;15.73;;
12962;SDS011;6546;49.882;8.666;2022-11-20T09:53:17;21.73;;;15.77;;
12962;SDS011;6546;49.882;8.666;2022-11-20T09:55:54;26.13;;;17.73;;
12962;SDS011;6546;49.882;8.666;2022-11-20T09:58:25;24.70;;;16.93;;
12962;SDS011;6546;49.882;8.666;2022-11-20T10:01:00;25.13;;;17.37;;
12962;SDS011;6546;49.882;8.666;2022-11-20T10:03:37;23.93;;;16.80;;
12962;SDS011;6546;49.882;8.666;2022-11-20T10:06:15;25.80;;;18.30;;
12962;SDS011;6546;49.882;8.666;2022-11-20T10:08:45;26.97;;;18.30;;
12962;SDS011;6546;49.882;8.666;2022-11-20T10:11:23;25.43;;;17.97;;
12962;SDS011;6546;49.882;8.666;2022-11-20T10:14:00;24.97;;;17.57;;
12962;SDS011;6546;49.882;8.666;2022-11-20T10:16:40;21.67;;;15.00;;
12962;SDS011;6546;49.882;8.666;2022-11-20T10:19:27;23.40;;;17.07;;
12962;SDS011;6546;49.882;8.666;2022-11-20T10:22:22;23.87;;;15.57;;
12962;SDS011;6546;49.882;8.666;2022-11-20T10:25:00;25.57;;;17.03;;
12962;SDS011;6546;49.882;8.666;2022-11-20T10:27:39;24.00;;;16.40;;
12962;SDS011;6546;49.882;8.666;2022-11-20T10:30:23;27.30;;;17.63;;
12962;SDS011;6546;49.882;8.666;2022-11-20T10:32:52;25.57;;;17.50;;
12962;SDS011;6546;49.882;8.666;2022-11-20T10:35:26;24.50;;;17.27;;
12962;SDS011;6546;49.882;8.666;2022-11-20T10:38:01;24.83;;;17.77;;
12962;SDS011;6546;49.882;8.666;2022-11-20T10:40:33;25.70;;;17.13;;
12962;SDS011;6546;49.882;8.666;2022-11-20T10:43:11;23.93;;;16.63;;
12962;SDS011;6546;49.882;8.666;2022-11-20T10:45:48;24.03;;;16.53;;
12962;SDS011;6546;49.882;8.666;2022-11-20T10:48:21;24.70;;;16.83;;
12962;SDS011;6546;49.882;8.666;2022-11-20T10:50:55;25.10;;;17.00;;
12962;SDS011;6546;49.882;8.666;2022-11-20T10:53:40;23.67;;;16.43;;
12962;SDS011;6546;49.882;8.666;2022-11-20T10:56:20;24.27;;;16.63;;
12962;SDS011;6546;49.882;8.666;2022-11-20T10:59:03;24.67;;;17.40;;
12962;SDS011;6546;49.882;8.666;2022-11-20T11:01:49;24.97;;;16.63;;
12962;SDS011;6546;49.882;8.666;2022-11-20T11:04:25;25.40;;;17.83;;
12962;SDS011;6546;49.882;8.666;2022-11-20T11:07:04;24.20;;;17.30;;
12962;SDS011;6546;49.882;8.666;2022-11-20T11:09:37;25.33;;;18.07;;
12962;SDS011;6546;49.882;8.666;2022-11-20T11:12:09;24.30;;;17.77;;
12962;SDS011;6546;49.882;8.666;2022-11-20T11:14:45;23.20;;;17.10;;
12962;SDS011;6546;49.882;8.666;2022-11-20T11:17:27;24.50;;;16.83;;
12962;SDS011;6546;49.882;8.666;2022-11-20T11:19:57;21.70;;;15.53;;
12962;SDS011;6546;49.882;8.666;2022-11-20T11:22:28;22.60;;;16.50;;
12962;SDS011;6546;49.882;8.666;2022-11-20T11:24:58;20.13;;;15.27;;
12962;SDS011;6546;49.882;8.666;2022-11-20T11:27:26;21.37;;;15.57;;
12962;SDS011;6546;49.882;8.666;2022-11-20T11:30:13;22.83;;;16.70;;
12962;SDS011;6546;49.882;8.666;2022-11-20T11:32:43;21.43;;;15.43;;
12962;SDS011;6546;49.882;8.666;2022-11-20T11:35:21;22.40;;;15.30;;
12962;SDS011;6546;49.882;8.666;2022-11-20T11:37:50;24.37;;;15.90;;
12962;SDS011;6546;49.882;8.666;2022-11-20T11:40:19;21.57;;;15.00;;
12962;SDS011;6546;49.882;8.666;2022-11-20T11:42:50;22.90;;;16.30;;
12962;SDS011;6546;49.882;8.666;2022-11-20T11:45:26;20.90;;;15.80;;
12962;SDS011;6546;49.882;8.666;2022-11-20T11:47:52;24.30;;;17.53;;
12962;SDS011;6546;49.882;8.666;2022-11-20T11:50:23;25.83;;;17.17;;
12962;SDS011;6546;49.882;8.666;2022-11-20T11:55:36;19.17;;;14.17;;
12962;SDS011;6546;49.882;8.666;2022-11-20T11:58:14;24.00;;;16.60;;
12962;SDS011;6546;49.882;8.666;2022-11-20T12:00:49;22.03;;;14.70;;
12962;SDS011;6546;49.882;8.666;2022-11-20T12:03:24;22.07;;;15.23;;
12962;SDS011;6546;49.882;8.666;2022-11-20T12:05:56;18.43;;;14.40;;
12962;SDS011;6546;49.882;8.666;2022-11-20T12:08:27;22.83;;;15.07;;
12962;SDS011;6546;49.882;8.666;2022-11-20T12:10:59;22.00;;;15.40;;
12962;SDS011;6546;49.882;8.666;2022-11-20T12:13:36;20.80;;;14.77;;
12962;SDS011;6546;49.882;8.666;2022-11-20T12:16:13;22.60;;;15.67;;
12962;SDS011;6546;49.882;8.666;2022-11-20T12:18:42;22.33;;;15.40;;
12962;SDS011;6546;49.882;8.666;2022-11-20T12:21:13;23.60;;;15.13;;
12962;SDS011;6546;49.882;8.666;2022-11-20T12:23:48;20.63;;;14.73;;
12962;SDS011;6546;49.882;8.666;2022-11-20T12:26:35;22.87;;;15.77;;
12962;SDS011;6546;49.882;8.666;2022-11-20T12:29:13;20.07;;;14.77;;
12962;SDS011;6546;49.882;8.666;2022-11-20T12:32:06;21.80;;;15.13;;
12962;SDS011;6546;49.882;8.666;2022-11-20T12:34:58;21.53;;;14.77;;
12962;SDS011;6546;49.882;8.666;2022-11-20T12:37:36;21.23;;;15.57;;
12962;SDS011;6546;49.882;8.666;2022-11-20T12:40:15;20.77;;;14.53;;
12962;SDS011;6546;49.882;8.666;2022-11-20T12:42:53;22.50;;;14.63;;
12962;SDS011;6546;49.882;8.666;2022-11-20T12:45:48;21.57;;;13.80;;
12962;SDS011;6546;49.882;8.666;2022-11-20T12:54:44;21.47;;;14.50;;
12962;SDS011;6546;49.882;8.666;2022-11-20T12:57:21;19.57;;;13.93;;
12962;SDS011;6546;49.882;8.666;2022-11-20T13:00:00;22.53;;;14.27;;
12962;SDS011;6546;49.882;8.666;2022-11-20T13:02:37;21.63;;;13.93;;
12962;SDS011;6546;49.882;8.666;2022-11-20T13:05:21;21.43;;;14.07;;
12962;SDS011;6546;49.882;8.666;2022-11-20T13:07:54;22.03;;;14.20;;
12962;SDS011;6546;49.882;8.666;2022-11-20T13:10:26;20.90;;;13.87;;
12962;SDS011;6546;49.882;8.666;2022-11-20T13:13:01;20.17;;;14.20;;
12962;SDS011;6546;49.882;8.666;2022-11-20T13:15:44;21.10;;;14.80;;
12962;SDS011;6546;49.882;8.666;2022-11-20T13:18:17;22.10;;;14.40;;
12962;SDS011;6546;49.882;8.666;2022-11-20T13:20:45;24.30;;;15.57;;
12962;SDS011;6546;49.882;8.666;2022-11-20T13:23:27;22.33;;;15.23;;
12962;SDS011;6546;49.882;8.666;2022-11-20T13:26:05;22.63;;;14.60;;
12962;SDS011;6546;49.882;8.666;2022-11-20T13:28:42;21.10;;;14.13;;
12962;SDS011;6546;49.882;8.666;2022-11-20T13:31:22;20.47;;;13.63;;
12962;SDS011;6546;49.882;8.666;2022-11-20T13:33:56;20.77;;;14.60;;
12962;SDS011;6546;49.882;8.666;2022-11-20T13:36:26;22.27;;;15.27;;
12962;SDS011;6546;49.882;8.666;2022-11-20T13:38:57;23.63;;;14.60;;
12962;SDS011;6546;49.882;8.666;2022-11-20T13:41:26;23.30;;;15.23;;
12962;SDS011;6546;49.882;8.666;2022-11-20T13:44:04;21.20;;;14.70;;
12962;SDS011;6546;49.882;8.666;2022-11-20T13:46:38;22.20;;;15.03;;
12962;SDS011;6546;49.882;8.666;2022-11-20T13:49:09;24.57;;;16.03;;
12962;SDS011;6546;49.882;8.666;2022-11-20T13:51:50;23.50;;;16.13;;
12962;SDS011;6546;49.882;8.666;2022-11-20T13:54:29;25.27;;;16.40;;
12962;SDS011;6546;49.882;8.666;2022-11-20T13:57:26;24.23;;;15.87;;
12962;SDS011;6546;49.882;8.666;2022-11-20T14:00:10;27.47;;;18.30;;
12962;SDS011;6546;49.882;8.666;2022-11-20T14:02:42;24.60;;;16.00;;
12962;SDS011;6546;49.882;8.666;2022-11-20T14:05:21;25.03;;;16.77;;
12962;SDS011;6546;49.882;8.666;2022-11-20T14:07:51;27.73;;;18.43;;
12962;SDS011;6546;49.882;8.666;2022-11-20T14:10:28;23.17;;;15.90;;
12962;SDS011;6546;49.882;8.666;2022-11-20T14:13:09;26.60;;;18.13;;
12962;SDS011;6546;49.882;8.666;2022-11-20T14:15:41;27.20;;;17.10;;
12962;SDS011;6546;49.882;8.666;2022-11-20T14:18:14;28.10;;;17.23;;
12962;SDS011;6546;49.882;8.666;2022-11-20T14:20:51;30.90;;;19.53;;
12962;SDS011;6546;49.882;8.666;2022-11-20T14:23:23;28.97;;;19.10;;
12962;SDS011;6546;49.882;8.666;2022-11-20T14:25:56;28.40;;;20.00;;
12962;SDS011;6546;49.882;8.666;2022-11-20T14:28:25;30.07;;;19.30;;
12962;SDS011;6546;49.882;8.666;2022-11-20T14:30:56;28.33;;;18.73;;
12962;SDS011;6546;49.882;8.666;2022-11-20T14:33:25;30.40;;;19.00;;
12962;SDS011;6546;49.882;8.666;2022-11-20T14:35:53;29.57;;;19.17;;
12962;SDS011;6546;49.882;8.666;2022-11-20T14:38:23;28.23;;;18.43;;
12962;SDS011;6546;49.882;8.666;2022-11-20T14:40:53;29.80;;;19.57;;
12962;SDS011;6546;49.882;8.666;2022-11-20T14:43:31;29.67;;;17.57;;
12962;SDS011;6546;49.882;8.666;2022-11-20T14:46:02;30.80;;;18.47;;
12962;SDS011;6546;49.882;8.666;2022-11-20T14:48:33;29.83;;;18.50;;
12962;SDS011;6546;49.882;8.666;2022-11-20T14:51:05;25.80;;;16.90;;
12962;SDS011;6546;49.882;8.666;2022-11-20T14:53:35;26.93;;;17.93;;
12962;SDS011;6546;49.882;8.666;2022-11-20T14:56:04;26.43;;;18.17;;
12962;SDS011;6546;49.882;8.666;2022-11-20T14:58:31;27.87;;;18.27;;
12962;SDS011;6546;49.882;8.666;2022-11-20T15:01:00;28.70;;;18.77;;
12962;SDS011;6546;49.882;8.666;2022-11-20T15:03:33;29.90;;;17.17;;
12962;SDS011;6546;49.882;8.666;2022-11-20T15:06:02;25.03;;;16.70;;
12962;SDS011;6546;49.882;8.666;2022-11-20T15:08:29;30.10;;;18.70;;
12962;SDS011;6546;49.882;8.666;2022-11-20T15:10:57;26.67;;;18.00;;
12962;SDS011;6546;49.882;8.666;2022-11-20T15:13:29;25.93;;;16.07;;
12962;SDS011;6546;49.882;8.666;2022-11-20T15:15:57;23.63;;;16.73;;